sensor_id;sensor_type;location;lat;lon;timestamp;P1;durP1;ratioP1;P2;durP2;ratioP2
76051;SDS011;64751;48.708;9.710;2023-03-11T00:00:32;0.82;;;0.60;;
76051;SDS011;64751;48.708;9.710;2023-03-11T00:03:02;0.40;;;0.40;;
76051;SDS011;64751;48.708;9.710;2023-03-11T00:05:32;0.45;;;0.40;;
76051;SDS011;64751;48.708;9.710;2023-03-11T00:08:02;0.90;;;0.60;;
76051;SDS011;64751;48.708;9.710;2023-03-11T00:10:31;0.68;;;0.43;;
76051;SDS011;64751;48.708;9.710;2023-03-11T00:13:00;0.50;;;0.40;;
76051;SDS011;64751;48.708;9.710;2023-03-11T00:15:28;0.68;;;0.60;;
76051;SDS011;64751;48.708;9.710;2023-03-11T00:17:57;0.88;;;0.60;;
76051;SDS011;64751;48.708;9.710;2023-03-11T00:20:26;0.60;;;0.60;;
76051;SDS011;64751;48.708;9.710;2023-03-11T00:22:57;0.57;;;0.40;;
76051;SDS011;64751;48.708;9.710;2023-03-11T00:25:26;0.52;;;0.47;;
76051;SDS011;64751;48.708;9.710;2023-03-11T00:27:56;0.57;;;0.50;;
76051;SDS011;64751;48.708;9.710;2023-03-11T00:30:24;1.08;;;0.60;;
76051;SDS011;64751;48.708;9.710;2023-03-11T00:32:53;0.50;;;0.32;;
76051;SDS011;64751;48.708;9.710;2023-03-11T00:35:22;0.65;;;0.40;;
76051;SDS011;64751;48.708;9.710;2023-03-11T00:37:52;0.22;;;0.20;;
76051;SDS011;64751;48.708;9.710;2023-03-11T00:40:23;0.55;;;0.40;;
76051;SDS011;64751;48.708;9.710;2023-03-11T00:42:52;0.28;;;0.28;;
76051;SDS011;64751;48.708;9.710;2023-03-11T00:45:19;0.80;;;0.40;;
76051;SDS011;64751;48.708;9.710;2023-03-11T00:47:47;0.95;;;0.40;;
76051;SDS011;64751;48.708;9.710;2023-03-11T00:50:17;0.28;;;0.22;;
76051;SDS011;64751;48.708;9.710;2023-03-11T00:52:47;0.47;;;0.47;;
76051;SDS011;64751;48.708;9.710;2023-03-11T00:55:16;1.08;;;0.45;;
76051;SDS011;64751;48.708;9.710;2023-03-11T00:57:48;0.50;;;0.40;;
76051;SDS011;64751;48.708;9.710;2023-03-11T01:00:19;0.47;;;0.30;;
76051;SDS011;64751;48.708;9.710;2023-03-11T01:02:48;0.90;;;0.40;;
76051;SDS011;64751;48.708;9.710;2023-03-11T01:05:17;0.40;;;0.32;;
76051;SDS011;64751;48.708;9.710;2023-03-11T01:07:45;0.70;;;0.35;;
76051;SDS011;64751;48.708;9.710;2023-03-11T01:10:12;0.17;;;0.17;;
76051;SDS011;64751;48.708;9.710;2023-03-11T01:12:40;1.08;;;0.35;;
76051;SDS011;64751;48.708;9.710;2023-03-11T01:15:11;0.70;;;0.50;;
76051;SDS011;64751;48.708;9.710;2023-03-11T01:17:43;0.85;;;0.45;;
76051;SDS011;64751;48.708;9.710;2023-03-11T01:20:11;0.40;;;0.30;;
76051;SDS011;64751;48.708;9.710;2023-03-11T01:22:39;0.40;;;0.35;;
76051;SDS011;64751;48.708;9.710;2023-03-11T01:25:07;0.75;;;0.50;;
76051;SDS011;64751;48.708;9.710;2023-03-11T01:27:36;0.93;;;0.60;;
76051;SDS011;64751;48.708;9.710;2023-03-11T01:30:04;0.43;;;0.38;;
76051;SDS011;64751;48.708;9.710;2023-03-11T01:32:34;0.50;;;0.47;;
76051;SDS011;64751;48.708;9.710;2023-03-11T01:35:02;0.40;;;0.40;;
76051;SDS011;64751;48.708;9.710;2023-03-11T01:37:29;1.13;;;0.65;;
76051;SDS011;64751;48.708;9.710;2023-03-11T01:39:56;0.50;;;0.43;;
76051;SDS011;64751;48.708;9.710;2023-03-11T01:42:24;0.85;;;0.68;;
76051;SDS011;64751;48.708;9.710;2023-03-11T01:44:52;0.75;;;0.55;;
76051;SDS011;64751;48.708;9.710;2023-03-11T01:47:38;0.95;;;0.68;;
76051;SDS011;64751;48.708;9.710;2023-03-11T01:50:09;0.73;;;0.52;;
76051;SDS011;64751;48.708;9.710;2023-03-11T01:52:40;1.23;;;0.60;;
76051;SDS011;64751;48.708;9.710;2023-03-11T01:55:09;0.40;;;0.30;;
76051;SDS011;64751;48.708;9.710;2023-03-11T01:57:38;0.75;;;0.50;;
76051;SDS011;64751;48.708;9.710;2023-03-11T02:00:09;0.65;;;0.50;;
76051;SDS011;64751;48.708;9.710;2023-03-11T02:02:45;0.60;;;0.60;;
76051;SDS011;64751;48.708;9.710;2023-03-11T02:05:17;0.38;;;0.38;;
76051;SDS011;64751;48.708;9.710;2023-03-11T02:07:46;0.32;;;0.25;;
76051;SDS011;64751;48.708;9.710;2023-03-11T02:10:17;0.60;;;0.50;;
76051;SDS011;64751;48.708;9.710;2023-03-11T02:12:45;0.45;;;0.40;;
76051;SDS011;64751;48.708;9.710;2023-03-11T02:15:21;1.08;;;0.63;;
76051;SDS011;64751;48.708;9.710;2023-03-11T02:17:51;0.73;;;0.55;;
76051;SDS011;64751;48.708;9.710;2023-03-11T02:20:26;1.02;;;0.52;;
76051;SDS011;64751;48.708;9.710;2023-03-11T02:23:08;3.15;;;1.67;;
76051;SDS011;64751;48.708;9.710;2023-03-11T02:25:38;1.23;;;0.80;;
76051;SDS011;64751;48.708;9.710;2023-03-11T02:28:14;0.60;;;0.60;;
76051;SDS011;64751;48.708;9.710;2023-03-11T02:30:45;0.57;;;0.57;;
76051;SDS011;64751;48.708;9.710;2023-03-11T02:33:14;0.65;;;0.47;;
76051;SDS011;64751;48.708;9.710;2023-03-11T02:35:45;0.95;;;0.57;;
76051;SDS011;64751;48.708;9.710;2023-03-11T02:38:12;0.40;;;0.40;;
76051;SDS011;64751;48.708;9.710;2023-03-11T02:40:49;1.65;;;0.60;;
76051;SDS011;64751;48.708;9.710;2023-03-11T02:43:23;0.80;;;0.70;;
76051;SDS011;64751;48.708;9.710;2023-03-11T02:45:55;0.60;;;0.60;;
76051;SDS011;64751;48.708;9.710;2023-03-11T02:48:23;0.73;;;0.55;;
76051;SDS011;64751;48.708;9.710;2023-03-11T02:50:51;0.88;;;0.60;;
76051;SDS011;64751;48.708;9.710;2023-03-11T02:53:19;1.95;;;0.60;;
76051;SDS011;64751;48.708;9.710;2023-03-11T02:55:47;0.60;;;0.60;;
76051;SDS011;64751;48.708;9.710;2023-03-11T02:58:14;2.17;;;0.70;;
76051;SDS011;64751;48.708;9.710;2023-03-11T03:00:43;1.13;;;0.60;;
76051;SDS011;64751;48.708;9.710;2023-03-11T03:03:11;1.42;;;0.80;;
76051;SDS011;64751;48.708;9.710;2023-03-11T03:05:39;1.67;;;0.65;;
76051;SDS011;64751;48.708;9.710;2023-03-11T03:08:06;0.77;;;0.68;;
76051;SDS011;64751;48.708;9.710;2023-03-11T03:10:34;1.08;;;0.98;;
76051;SDS011;64751;48.708;9.710;2023-03-11T03:13:02;0.40;;;0.40;;
76051;SDS011;64751;48.708;9.710;2023-03-11T03:15:30;0.50;;;0.45;;
76051;SDS011;64751;48.708;9.710;2023-03-11T03:18:00;0.47;;;0.40;;
76051;SDS011;64751;48.708;9.710;2023-03-11T03:20:28;0.77;;;0.70;;
76051;SDS011;64751;48.708;9.710;2023-03-11T03:22:59;0.30;;;0.30;;
76051;SDS011;64751;48.708;9.710;2023-03-11T03:25:30;0.40;;;0.40;;
76051;SDS011;64751;48.708;9.710;2023-03-11T03:28:00;0.60;;;0.50;;
76051;SDS011;64751;48.708;9.710;2023-03-11T03:30:31;0.52;;;0.40;;
76051;SDS011;64751;48.708;9.710;2023-03-11T03:32:59;0.52;;;0.45;;
76051;SDS011;64751;48.708;9.710;2023-03-11T03:35:29;0.60;;;0.40;;
76051;SDS011;64751;48.708;9.710;2023-03-11T03:38:02;0.40;;;0.38;;
76051;SDS011;64751;48.708;9.710;2023-03-11T03:40:30;0.98;;;0.60;;
76051;SDS011;64751;48.708;9.710;2023-03-11T03:43:01;0.57;;;0.55;;
76051;SDS011;64751;48.708;9.710;2023-03-11T03:45:30;0.60;;;0.57;;
76051;SDS011;64751;48.708;9.710;2023-03-11T03:47:58;1.30;;;0.45;;
76051;SDS011;64751;48.708;9.710;2023-03-11T03:50:30;0.60;;;0.60;;
76051;SDS011;64751;48.708;9.710;2023-03-11T03:52:58;0.60;;;0.47;;
76051;SDS011;64751;48.708;9.710;2023-03-11T03:55:26;0.63;;;0.50;;
76051;SDS011;64751;48.708;9.710;2023-03-11T03:57:54;0.73;;;0.60;;
76051;SDS011;64751;48.708;9.710;2023-03-11T04:00:25;0.68;;;0.50;;
76051;SDS011;64751;48.708;9.710;2023-03-11T04:02:58;0.52;;;0.52;;
76051;SDS011;64751;48.708;9.710;2023-03-11T04:05:35;0.98;;;0.77;;
76051;SDS011;64751;48.708;9.710;2023-03-11T04:08:03;1.85;;;0.52;;
76051;SDS011;64751;48.708;9.710;2023-03-11T04:10:31;0.30;;;0.30;;
76051;SDS011;64751;48.708;9.710;2023-03-11T04:12:58;1.33;;;0.60;;
76051;SDS011;64751;48.708;9.710;2023-03-11T04:15:27;0.73;;;0.60;;
76051;SDS011;64751;48.708;9.710;2023-03-11T04:17:54;3.95;;;1.67;;
76051;SDS011;64751;48.708;9.710;2023-03-11T04:20:23;3.60;;;1.85;;
76051;SDS011;64751;48.708;9.710;2023-03-11T04:22:53;3.63;;;2.10;;
76051;SDS011;64751;48.708;9.710;2023-03-11T04:25:23;2.40;;;1.40;;
76051;SDS011;64751;48.708;9.710;2023-03-11T04:27:51;1.95;;;1.15;;
76051;SDS011;64751;48.708;9.710;2023-03-11T04:30:19;1.95;;;1.10;;
76051;SDS011;64751;48.708;9.710;2023-03-11T04:32:49;3.75;;;1.95;;
76051;SDS011;64751;48.708;9.710;2023-03-11T04:35:17;2.53;;;1.60;;
76051;SDS011;64751;48.708;9.710;2023-03-11T04:37:45;1.33;;;0.95;;
76051;SDS011;64751;48.708;9.710;2023-03-11T04:40:14;2.55;;;1.42;;
76051;SDS011;64751;48.708;9.710;2023-03-11T04:42:42;1.20;;;0.85;;
76051;SDS011;64751;48.708;9.710;2023-03-11T04:45:11;1.10;;;1.00;;
76051;SDS011;64751;48.708;9.710;2023-03-11T04:47:40;1.90;;;1.10;;
76051;SDS011;64751;48.708;9.710;2023-03-11T04:50:09;2.60;;;0.80;;
76051;SDS011;64751;48.708;9.710;2023-03-11T04:52:37;1.52;;;0.75;;
76051;SDS011;64751;48.708;9.710;2023-03-11T04:55:05;0.70;;;0.60;;
76051;SDS011;64751;48.708;9.710;2023-03-11T04:57:35;0.73;;;0.70;;
76051;SDS011;64751;48.708;9.710;2023-03-11T05:00:04;1.67;;;0.70;;
76051;SDS011;64751;48.708;9.710;2023-03-11T05:02:35;2.17;;;0.43;;
76051;SDS011;64751;48.708;9.710;2023-03-11T05:05:04;0.80;;;0.43;;
76051;SDS011;64751;48.708;9.710;2023-03-11T05:07:33;0.60;;;0.40;;
76051;SDS011;64751;48.708;9.710;2023-03-11T05:10:02;0.68;;;0.50;;
76051;SDS011;64751;48.708;9.710;2023-03-11T05:12:31;0.60;;;0.50;;
76051;SDS011;64751;48.708;9.710;2023-03-11T05:15:01;0.68;;;0.50;;
76051;SDS011;64751;48.708;9.710;2023-03-11T05:17:28;0.80;;;0.70;;
76051;SDS011;64751;48.708;9.710;2023-03-11T05:19:57;1.17;;;0.60;;
76051;SDS011;64751;48.708;9.710;2023-03-11T05:22:30;0.43;;;0.40;;
76051;SDS011;64751;48.708;9.710;2023-03-11T05:24:57;0.77;;;0.50;;
76051;SDS011;64751;48.708;9.710;2023-03-11T05:27:25;1.10;;;0.55;;
76051;SDS011;64751;48.708;9.710;2023-03-11T05:29:55;0.47;;;0.32;;
76051;SDS011;64751;48.708;9.710;2023-03-11T05:32:25;0.60;;;0.60;;
76051;SDS011;64751;48.708;9.710;2023-03-11T05:34:54;1.00;;;0.77;;
76051;SDS011;64751;48.708;9.710;2023-03-11T05:37:21;0.95;;;0.60;;
76051;SDS011;64751;48.708;9.710;2023-03-11T05:39:50;0.95;;;0.57;;
76051;SDS011;64751;48.708;9.710;2023-03-11T05:42:18;0.63;;;0.55;;
76051;SDS011;64751;48.708;9.710;2023-03-11T05:44:47;1.27;;;0.57;;
76051;SDS011;64751;48.708;9.710;2023-03-11T05:47:15;0.80;;;0.50;;
76051;SDS011;64751;48.708;9.710;2023-03-11T05:49:46;0.98;;;0.88;;
76051;SDS011;64751;48.708;9.710;2023-03-11T05:52:16;0.80;;;0.55;;
76051;SDS011;64751;48.708;9.710;2023-03-11T05:54:44;1.85;;;0.75;;
76051;SDS011;64751;48.708;9.710;2023-03-11T05:57:16;0.55;;;0.43;;
76051;SDS011;64751;48.708;9.710;2023-03-11T05:59:44;1.08;;;0.50;;
76051;SDS011;64751;48.708;9.710;2023-03-11T06:02:11;0.68;;;0.60;;
76051;SDS011;64751;48.708;9.710;2023-03-11T06:04:40;0.30;;;0.20;;
76051;SDS011;64751;48.708;9.710;2023-03-11T06:07:10;0.80;;;0.60;;
76051;SDS011;64751;48.708;9.710;2023-03-11T06:09:40;0.77;;;0.22;;
76051;SDS011;64751;48.708;9.710;2023-03-11T06:12:12;1.13;;;0.57;;
76051;SDS011;64751;48.708;9.710;2023-03-11T06:15:03;1.58;;;0.70;;
76051;SDS011;64751;48.708;9.710;2023-03-11T06:17:31;0.77;;;0.55;;
76051;SDS011;64751;48.708;9.710;2023-03-11T06:20:00;0.98;;;0.50;;
76051;SDS011;64751;48.708;9.710;2023-03-11T06:22:31;2.08;;;0.63;;
76051;SDS011;64751;48.708;9.710;2023-03-11T06:24:59;0.98;;;0.50;;
76051;SDS011;64751;48.708;9.710;2023-03-11T06:27:27;1.00;;;0.52;;
76051;SDS011;64751;48.708;9.710;2023-03-11T06:29:54;1.27;;;0.65;;
76051;SDS011;64751;48.708;9.710;2023-03-11T06:32:24;0.90;;;0.70;;
76051;SDS011;64751;48.708;9.710;2023-03-11T06:34:51;0.88;;;0.57;;
76051;SDS011;64751;48.708;9.710;2023-03-11T06:37:21;0.90;;;0.50;;
76051;SDS011;64751;48.708;9.710;2023-03-11T06:39:52;1.35;;;0.60;;
76051;SDS011;64751;48.708;9.710;2023-03-11T06:42:22;0.90;;;0.70;;
76051;SDS011;64751;48.708;9.710;2023-03-11T06:44:51;0.77;;;0.60;;
76051;SDS011;64751;48.708;9.710;2023-03-11T06:47:19;1.05;;;0.55;;
76051;SDS011;64751;48.708;9.710;2023-03-11T06:49:48;2.15;;;0.80;;
76051;SDS011;64751;48.708;9.710;2023-03-11T06:52:16;1.58;;;0.70;;
76051;SDS011;64751;48.708;9.710;2023-03-11T06:54:44;1.48;;;1.02;;
76051;SDS011;64751;48.708;9.710;2023-03-11T06:57:13;3.08;;;1.75;;
76051;SDS011;64751;48.708;9.710;2023-03-11T06:59:42;2.85;;;1.63;;
76051;SDS011;64751;48.708;9.710;2023-03-11T07:02:12;2.25;;;1.33;;
76051;SDS011;64751;48.708;9.710;2023-03-11T07:04:41;1.13;;;0.98;;
76051;SDS011;64751;48.708;9.710;2023-03-11T07:07:08;1.77;;;0.77;;
76051;SDS011;64751;48.708;9.710;2023-03-11T07:09:36;0.80;;;0.60;;
76051;SDS011;64751;48.708;9.710;2023-03-11T07:12:05;1.50;;;1.05;;
76051;SDS011;64751;48.708;9.710;2023-03-11T07:14:37;1.75;;;1.13;;
76051;SDS011;64751;48.708;9.710;2023-03-11T07:17:04;2.05;;;1.08;;
76051;SDS011;64751;48.708;9.710;2023-03-11T07:19:41;1.20;;;0.93;;
76051;SDS011;64751;48.708;9.710;2023-03-11T07:22:08;3.22;;;1.73;;
76051;SDS011;64751;48.708;9.710;2023-03-11T07:24:36;2.42;;;1.67;;
76051;SDS011;64751;48.708;9.710;2023-03-11T07:27:03;1.85;;;1.40;;
76051;SDS011;64751;48.708;9.710;2023-03-11T07:29:31;1.70;;;1.20;;
76051;SDS011;64751;48.708;9.710;2023-03-11T07:32:00;2.00;;;0.90;;
76051;SDS011;64751;48.708;9.710;2023-03-11T07:34:27;2.40;;;1.30;;
76051;SDS011;64751;48.708;9.710;2023-03-11T07:36:55;2.13;;;1.30;;
76051;SDS011;64751;48.708;9.710;2023-03-11T07:39:22;0.88;;;0.55;;
76051;SDS011;64751;48.708;9.710;2023-03-11T07:41:50;1.20;;;0.88;;
76051;SDS011;64751;48.708;9.710;2023-03-11T07:44:17;1.17;;;0.90;;
76051;SDS011;64751;48.708;9.710;2023-03-11T07:46:45;1.40;;;0.80;;
76051;SDS011;64751;48.708;9.710;2023-03-11T07:49:14;1.10;;;0.75;;
76051;SDS011;64751;48.708;9.710;2023-03-11T07:51:41;1.10;;;0.60;;
76051;SDS011;64751;48.708;9.710;2023-03-11T07:54:09;1.27;;;0.80;;
76051;SDS011;64751;48.708;9.710;2023-03-11T07:56:38;1.27;;;0.90;;
76051;SDS011;64751;48.708;9.710;2023-03-11T07:59:05;2.63;;;1.00;;
76051;SDS011;64751;48.708;9.710;2023-03-11T08:01:33;0.90;;;0.75;;
76051;SDS011;64751;48.708;9.710;2023-03-11T08:04:04;0.80;;;0.60;;
76051;SDS011;64751;48.708;9.710;2023-03-11T08:06:34;1.27;;;0.73;;
76051;SDS011;64751;48.708;9.710;2023-03-11T08:09:05;1.45;;;0.80;;
76051;SDS011;64751;48.708;9.710;2023-03-11T08:11:34;1.33;;;0.80;;
76051;SDS011;64751;48.708;9.710;2023-03-11T08:14:02;2.25;;;1.10;;
76051;SDS011;64751;48.708;9.710;2023-03-11T08:16:29;0.93;;;0.80;;
76051;SDS011;64751;48.708;9.710;2023-03-11T08:18:57;0.82;;;0.68;;
76051;SDS011;64751;48.708;9.710;2023-03-11T08:21:26;1.05;;;0.70;;
76051;SDS011;64751;48.708;9.710;2023-03-11T08:23:59;3.40;;;1.00;;
76051;SDS011;64751;48.708;9.710;2023-03-11T08:26:27;3.05;;;0.95;;
76051;SDS011;64751;48.708;9.710;2023-03-11T08:28:55;1.27;;;0.63;;
76051;SDS011;64751;48.708;9.710;2023-03-11T08:31:24;1.35;;;0.60;;
76051;SDS011;64751;48.708;9.710;2023-03-11T08:33:54;1.02;;;0.82;;
76051;SDS011;64751;48.708;9.710;2023-03-11T08:36:23;1.35;;;0.50;;
76051;SDS011;64751;48.708;9.710;2023-03-11T08:38:51;0.55;;;0.43;;
76051;SDS011;64751;48.708;9.710;2023-03-11T08:41:20;0.82;;;0.60;;
76051;SDS011;64751;48.708;9.710;2023-03-11T08:43:47;1.55;;;0.90;;
76051;SDS011;64751;48.708;9.710;2023-03-11T08:46:20;1.40;;;0.70;;
76051;SDS011;64751;48.708;9.710;2023-03-11T08:48:51;1.88;;;0.70;;
76051;SDS011;64751;48.708;9.710;2023-03-11T08:51:18;1.63;;;0.95;;
76051;SDS011;64751;48.708;9.710;2023-03-11T08:53:46;1.05;;;0.40;;
76051;SDS011;64751;48.708;9.710;2023-03-11T08:56:14;1.30;;;0.70;;
76051;SDS011;64751;48.708;9.710;2023-03-11T08:58:43;0.60;;;0.40;;
76051;SDS011;64751;48.708;9.710;2023-03-11T09:01:11;1.40;;;0.80;;
76051;SDS011;64751;48.708;9.710;2023-03-11T09:03:39;0.90;;;0.50;;
76051;SDS011;64751;48.708;9.710;2023-03-11T09:06:08;1.67;;;0.55;;
76051;SDS011;64751;48.708;9.710;2023-03-11T09:08:38;1.25;;;0.70;;
76051;SDS011;64751;48.708;9.710;2023-03-11T09:11:05;1.13;;;0.70;;
76051;SDS011;64751;48.708;9.710;2023-03-11T09:13:33;1.67;;;0.60;;
76051;SDS011;64751;48.708;9.710;2023-03-11T09:16:03;0.98;;;0.70;;
76051;SDS011;64751;48.708;9.710;2023-03-11T09:18:31;1.42;;;0.77;;
76051;SDS011;64751;48.708;9.710;2023-03-11T09:20:58;0.52;;;0.50;;
76051;SDS011;64751;48.708;9.710;2023-03-11T09:23:26;1.13;;;0.73;;
76051;SDS011;64751;48.708;9.710;2023-03-11T09:25:54;2.47;;;0.70;;
76051;SDS011;64751;48.708;9.710;2023-03-11T09:28:21;0.90;;;0.50;;
76051;SDS011;64751;48.708;9.710;2023-03-11T09:30:49;0.90;;;0.60;;
76051;SDS011;64751;48.708;9.710;2023-03-11T09:33:18;1.33;;;0.95;;
76051;SDS011;64751;48.708;9.710;2023-03-11T09:35:46;1.15;;;0.55;;
76051;SDS011;64751;48.708;9.710;2023-03-11T09:38:13;1.17;;;0.70;;
76051;SDS011;64751;48.708;9.710;2023-03-11T09:40:44;0.93;;;0.60;;
76051;SDS011;64751;48.708;9.710;2023-03-11T09:43:21;1.15;;;0.70;;
76051;SDS011;64751;48.708;9.710;2023-03-11T09:46:09;2.08;;;0.73;;
76051;SDS011;64751;48.708;9.710;2023-03-11T09:48:53;0.95;;;0.65;;
76051;SDS011;64751;48.708;9.710;2023-03-11T09:51:31;2.05;;;0.63;;
76051;SDS011;64751;48.708;9.710;2023-03-11T09:54:04;1.10;;;0.77;;
76051;SDS011;64751;48.708;9.710;2023-03-11T09:56:37;1.70;;;0.75;;
76051;SDS011;64751;48.708;9.710;2023-03-11T09:59:06;2.03;;;0.80;;
76051;SDS011;64751;48.708;9.710;2023-03-11T10:01:41;1.30;;;0.80;;
76051;SDS011;64751;48.708;9.710;2023-03-11T10:04:15;1.20;;;0.88;;
76051;SDS011;64751;48.708;9.710;2023-03-11T10:06:47;1.85;;;0.52;;
76051;SDS011;64751;48.708;9.710;2023-03-11T10:09:24;1.60;;;0.73;;
76051;SDS011;64751;48.708;9.710;2023-03-11T10:14:47;1.30;;;0.70;;
76051;SDS011;64751;48.708;9.710;2023-03-11T10:17:27;1.35;;;0.70;;
76051;SDS011;64751;48.708;9.710;2023-03-11T10:20:08;0.55;;;0.50;;
76051;SDS011;64751;48.708;9.710;2023-03-11T10:22:41;1.42;;;0.52;;
76051;SDS011;64751;48.708;9.710;2023-03-11T10:25:15;1.38;;;0.57;;
76051;SDS011;64751;48.708;9.710;2023-03-11T10:27:47;1.05;;;0.68;;
76051;SDS011;64751;48.708;9.710;2023-03-11T10:30:22;1.13;;;0.80;;
76051;SDS011;64751;48.708;9.710;2023-03-11T10:32:54;1.88;;;0.98;;
76051;SDS011;64751;48.708;9.710;2023-03-11T10:35:29;1.23;;;0.93;;
76051;SDS011;64751;48.708;9.710;2023-03-11T10:38:04;1.10;;;0.60;;
76051;SDS011;64751;48.708;9.710;2023-03-11T10:40:40;1.15;;;0.65;;
76051;SDS011;64751;48.708;9.710;2023-03-11T10:43:09;0.35;;;0.32;;
76051;SDS011;64751;48.708;9.710;2023-03-11T10:45:40;1.73;;;0.68;;
76051;SDS011;64751;48.708;9.710;2023-03-11T10:48:11;1.65;;;0.70;;
76051;SDS011;64751;48.708;9.710;2023-03-11T10:50:44;0.60;;;0.30;;
76051;SDS011;64751;48.708;9.710;2023-03-11T10:53:16;2.00;;;0.75;;
76051;SDS011;64751;48.708;9.710;2023-03-11T10:55:45;1.02;;;0.60;;
76051;SDS011;64751;48.708;9.710;2023-03-11T10:58:16;0.40;;;0.40;;
76051;SDS011;64751;48.708;9.710;2023-03-11T11:00:53;0.57;;;0.43;;
76051;SDS011;64751;48.708;9.710;2023-03-11T11:03:25;2.10;;;0.40;;
76051;SDS011;64751;48.708;9.710;2023-03-11T11:05:59;0.63;;;0.50;;
76051;SDS011;64751;48.708;9.710;2023-03-11T11:08:29;1.85;;;0.60;;
76051;SDS011;64751;48.708;9.710;2023-03-11T11:10:57;0.65;;;0.55;;
76051;SDS011;64751;48.708;9.710;2023-03-11T11:13:26;0.45;;;0.45;;
76051;SDS011;64751;48.708;9.710;2023-03-11T11:15:57;0.98;;;0.80;;
76051;SDS011;64751;48.708;9.710;2023-03-11T11:18:27;1.13;;;0.52;;
76051;SDS011;64751;48.708;9.710;2023-03-11T11:20:59;0.70;;;0.50;;
76051;SDS011;64751;48.708;9.710;2023-03-11T11:23:31;2.20;;;1.35;;
76051;SDS011;64751;48.708;9.710;2023-03-11T11:26:02;1.92;;;1.08;;
76051;SDS011;64751;48.708;9.710;2023-03-11T11:28:31;0.77;;;0.47;;
76051;SDS011;64751;48.708;9.710;2023-03-11T11:31:00;0.80;;;0.60;;
76051;SDS011;64751;48.708;9.710;2023-03-11T11:33:30;0.88;;;0.43;;
76051;SDS011;64751;48.708;9.710;2023-03-11T11:36:01;2.13;;;0.60;;
76051;SDS011;64751;48.708;9.710;2023-03-11T11:38:30;2.17;;;0.70;;
76051;SDS011;64751;48.708;9.710;2023-03-11T11:41:00;3.13;;;0.80;;
76051;SDS011;64751;48.708;9.710;2023-03-11T11:43:40;2.00;;;0.73;;
76051;SDS011;64751;48.708;9.710;2023-03-11T11:46:15;0.82;;;0.50;;
76051;SDS011;64751;48.708;9.710;2023-03-11T11:48:49;1.92;;;0.95;;
76051;SDS011;64751;48.708;9.710;2023-03-11T11:51:29;0.80;;;0.63;;
76051;SDS011;64751;48.708;9.710;2023-03-11T11:54:00;0.43;;;0.40;;
76051;SDS011;64751;48.708;9.710;2023-03-11T11:56:37;1.58;;;0.68;;
76051;SDS011;64751;48.708;9.710;2023-03-11T11:59:08;1.83;;;0.60;;
76051;SDS011;64751;48.708;9.710;2023-03-11T12:01:43;0.95;;;0.60;;
76051;SDS011;64751;48.708;9.710;2023-03-11T12:04:34;2.17;;;0.80;;
76051;SDS011;64751;48.708;9.710;2023-03-11T12:07:19;0.68;;;0.43;;
76051;SDS011;64751;48.708;9.710;2023-03-11T12:10:13;0.98;;;0.65;;
76051;SDS011;64751;48.708;9.710;2023-03-11T12:12:49;1.02;;;0.70;;
76051;SDS011;64751;48.708;9.710;2023-03-11T12:15:25;0.80;;;0.43;;
76051;SDS011;64751;48.708;9.710;2023-03-11T12:17:58;0.77;;;0.40;;
76051;SDS011;64751;48.708;9.710;2023-03-11T12:20:30;0.40;;;0.28;;
76051;SDS011;64751;48.708;9.710;2023-03-11T12:23:16;1.90;;;0.60;;
76051;SDS011;64751;48.708;9.710;2023-03-11T12:28:41;1.20;;;0.47;;
76051;SDS011;64751;48.708;9.710;2023-03-11T12:31:14;1.33;;;0.40;;
76051;SDS011;64751;48.708;9.710;2023-03-11T12:33:43;0.68;;;0.68;;
76051;SDS011;64751;48.708;9.710;2023-03-11T12:36:23;0.75;;;0.50;;
76051;SDS011;64751;48.708;9.710;2023-03-11T12:38:56;1.05;;;0.70;;
76051;SDS011;64751;48.708;9.710;2023-03-11T12:41:27;1.10;;;0.35;;
76051;SDS011;64751;48.708;9.710;2023-03-11T12:44:00;1.17;;;0.65;;
76051;SDS011;64751;48.708;9.710;2023-03-11T12:52:58;2.08;;;0.70;;
76051;SDS011;64751;48.708;9.710;2023-03-11T12:55:32;0.82;;;0.65;;
76051;SDS011;64751;48.708;9.710;2023-03-11T13:01:11;0.68;;;0.50;;
76051;SDS011;64751;48.708;9.710;2023-03-11T13:03:54;1.80;;;0.80;;
76051;SDS011;64751;48.708;9.710;2023-03-11T13:06:45;2.53;;;0.90;;
76051;SDS011;64751;48.708;9.710;2023-03-11T13:09:28;1.70;;;0.57;;
76051;SDS011;64751;48.708;9.710;2023-03-11T13:11:57;0.95;;;0.70;;
76051;SDS011;64751;48.708;9.710;2023-03-11T13:14:26;2.58;;;0.52;;
76051;SDS011;64751;48.708;9.710;2023-03-11T13:16:56;0.95;;;0.52;;
76051;SDS011;64751;48.708;9.710;2023-03-11T13:19:47;0.65;;;0.63;;
76051;SDS011;64751;48.708;9.710;2023-03-11T13:25:24;1.40;;;0.57;;
76051;SDS011;64751;48.708;9.710;2023-03-11T13:27:56;1.35;;;0.63;;
76051;SDS011;64751;48.708;9.710;2023-03-11T13:30:38;1.50;;;0.57;;
76051;SDS011;64751;48.708;9.710;2023-03-11T13:33:21;0.88;;;0.60;;
76051;SDS011;64751;48.708;9.710;2023-03-11T13:35:59;2.28;;;0.60;;
76051;SDS011;64751;48.708;9.710;2023-03-11T13:38:40;1.05;;;0.68;;
76051;SDS011;64751;48.708;9.710;2023-03-11T13:41:18;1.00;;;0.55;;
76051;SDS011;64751;48.708;9.710;2023-03-11T13:46:23;0.93;;;0.40;;
76051;SDS011;64751;48.708;9.710;2023-03-11T13:48:59;1.15;;;0.57;;
76051;SDS011;64751;48.708;9.710;2023-03-11T13:51:34;0.68;;;0.47;;
76051;SDS011;64751;48.708;9.710;2023-03-11T13:54:09;1.20;;;0.70;;
76051;SDS011;64751;48.708;9.710;2023-03-11T13:56:54;0.73;;;0.50;;
76051;SDS011;64751;48.708;9.710;2023-03-11T13:59:26;0.88;;;0.55;;
76051;SDS011;64751;48.708;9.710;2023-03-11T14:01:56;0.77;;;0.68;;
76051;SDS011;64751;48.708;9.710;2023-03-11T14:04:26;0.40;;;0.32;;
76051;SDS011;64751;48.708;9.710;2023-03-11T14:06:56;0.70;;;0.40;;
76051;SDS011;64751;48.708;9.710;2023-03-11T14:09:24;0.70;;;0.70;;
76051;SDS011;64751;48.708;9.710;2023-03-11T14:11:54;2.33;;;0.80;;
76051;SDS011;64751;48.708;9.710;2023-03-11T14:14:33;0.98;;;0.80;;
76051;SDS011;64751;48.708;9.710;2023-03-11T14:17:14;1.25;;;0.73;;
76051;SDS011;64751;48.708;9.710;2023-03-11T14:19:43;0.65;;;0.50;;
76051;SDS011;64751;48.708;9.710;2023-03-11T14:22:29;0.68;;;0.57;;
76051;SDS011;64751;48.708;9.710;2023-03-11T14:24:57;1.73;;;0.77;;
76051;SDS011;64751;48.708;9.710;2023-03-11T14:27:28;1.10;;;0.70;;
76051;SDS011;64751;48.708;9.710;2023-03-11T14:29:56;0.63;;;0.50;;
76051;SDS011;64751;48.708;9.710;2023-03-11T14:32:25;1.08;;;0.50;;
76051;SDS011;64751;48.708;9.710;2023-03-11T14:34:54;1.88;;;0.95;;
76051;SDS011;64751;48.708;9.710;2023-03-11T14:37:26;0.85;;;0.60;;
76051;SDS011;64751;48.708;9.710;2023-03-11T14:39:57;0.82;;;0.40;;
76051;SDS011;64751;48.708;9.710;2023-03-11T14:42:25;1.90;;;0.63;;
76051;SDS011;64751;48.708;9.710;2023-03-11T14:45:01;1.75;;;0.52;;
76051;SDS011;64751;48.708;9.710;2023-03-11T14:47:32;1.05;;;0.60;;
76051;SDS011;64751;48.708;9.710;2023-03-11T14:50:05;1.45;;;0.60;;
76051;SDS011;64751;48.708;9.710;2023-03-11T14:52:38;1.05;;;0.50;;
76051;SDS011;64751;48.708;9.710;2023-03-11T14:55:11;1.27;;;0.45;;
76051;SDS011;64751;48.708;9.710;2023-03-11T14:57:41;1.00;;;0.40;;
76051;SDS011;64751;48.708;9.710;2023-03-11T15:00:15;1.20;;;0.75;;
76051;SDS011;64751;48.708;9.710;2023-03-11T15:02:54;0.50;;;0.40;;
76051;SDS011;64751;48.708;9.710;2023-03-11T15:05:27;1.05;;;0.60;;
76051;SDS011;64751;48.708;9.710;2023-03-11T15:08:01;1.50;;;0.90;;
76051;SDS011;64751;48.708;9.710;2023-03-11T15:10:32;1.20;;;0.50;;
76051;SDS011;64751;48.708;9.710;2023-03-11T15:13:09;1.50;;;0.50;;
76051;SDS011;64751;48.708;9.710;2023-03-11T15:15:42;1.10;;;0.40;;
76051;SDS011;64751;48.708;9.710;2023-03-11T15:18:18;1.42;;;0.60;;
76051;SDS011;64751;48.708;9.710;2023-03-11T15:20:59;1.15;;;0.77;;
76051;SDS011;64751;48.708;9.710;2023-03-11T15:23:30;0.77;;;0.63;;
76051;SDS011;64751;48.708;9.710;2023-03-11T15:26:00;1.35;;;0.80;;
76051;SDS011;64751;48.708;9.710;2023-03-11T15:28:29;1.30;;;0.52;;
76051;SDS011;64751;48.708;9.710;2023-03-11T15:31:16;1.08;;;0.55;;